Terminal Aerodrome Forecast
Issued by NWS

Home | Current Version | Previous Version | Text Only | Print | Product List | Glossary On
Versions: 1 2 3 4 5 6 7 8 9 10 11 12 13 14 15 16 17 18 19 20 21 22 23 24 25 26 27 28 29
892
FTUS41 KBGM 062035 CCA
TAFELM
TAF COR
KELM 062035Z 0621/0718 05007KT P6SM -SHRA SCT020 OVC035
      TEMPO 0621/0624 3SM -SHRA BR OVC025
     FM070000 04005KT 4SM -SHRA BR OVC025
      TEMPO 0702/0706 3SM -SHRA BR OVC015
     FM070600 VRB03KT P6SM OVC015
     FM071300 21003KT P6SM OVC025=

USA.gov is the U.S. government's official web portal to all federal, state and local government web resources and services.